Time;durP1;ratioP1;P1;durP2;ratioP2;P2;SDS_P1;SDS_P2;PMS_P1;PMS_P2;Temp;Humidity;BMP_temperature;BMP_pressure;BME280_temperature;BME280_humidity;BME280_pressure;Samples;Min_cycle;Max_cycle;Signal;HPM_P1;HPM_P2
2021/01/26 00:00:18;;;;;;;24.13;15.33;;;-1.80;99.90;;;-1.20;100.00;99634.97;5013669;28;20253;-59
2021/01/26 00:02:46;;;;;;;24.17;16.30;;;-1.80;99.90;;;-1.23;100.00;99637.94;5013704;28;20182;-60
2021/01/26 00:05:14;;;;;;;22.83;15.00;;;-1.90;99.90;;;-1.11;100.00;99639.31;5013391;28;20209;-60
2021/01/26 00:07:41;;;;;;;22.00;14.53;;;-1.90;99.90;;;-0.93;100.00;99633.94;5013624;28;20242;-59
2021/01/26 00:10:12;;;;;;;23.57;15.23;;;-1.80;99.90;;;-0.73;100.00;99640.63;5013769;28;20260;-59
2021/01/26 00:12:40;;;;;;;21.80;15.00;;;-1.70;99.90;;;-0.67;100.00;99646.09;5013416;28;20246;-60
2021/01/26 00:15:09;;;;;;;25.60;15.43;;;-1.60;99.90;;;-0.81;100.00;99638.75;5013290;28;20210;-60
2021/01/26 00:17:37;;;;;;;22.50;15.97;;;-1.60;99.90;;;-1.07;100.00;99642.47;5013163;28;20675;-60
2021/01/26 00:20:06;;;;;;;21.23;15.73;;;-1.70;99.90;;;-0.86;100.00;99643.69;5013416;28;20210;-60
2021/01/26 00:22:34;;;;;;;25.43;17.27;;;-1.70;99.90;;;-0.83;100.00;99640.72;5012932;28;20230;-61
2021/01/26 00:25:01;;;;;;;23.47;16.00;;;-1.60;99.90;;;-0.81;100.00;99649.34;5013291;28;20260;-61
2021/01/26 00:27:28;;;;;;;24.97;17.17;;;-1.60;99.90;;;-1.03;100.00;99649.91;5013274;28;20672;-61
2021/01/26 00:29:56;;;;;;;23.93;17.00;;;-1.70;99.90;;;-0.73;100.00;99645.91;5013385;28;20500;-61
2021/01/26 00:32:23;;;;;;;24.00;16.37;;;-1.60;99.90;;;-0.71;100.00;99646.56;5013141;28;20225;-59
2021/01/26 00:34:51;;;;;;;21.00;15.67;;;-1.50;99.90;;;-0.72;100.00;99652.81;5013040;28;20230;-60
2021/01/26 00:37:18;;;;;;;25.27;17.10;;;-1.50;99.90;;;-0.76;100.00;99641.75;5012739;28;20329;-60
2021/01/26 00:39:45;;;;;;;26.03;16.37;;;-1.50;99.90;;;-0.87;100.00;99647.34;5013031;28;20217;-60
2021/01/26 00:42:12;;;;;;;23.60;15.77;;;-1.60;99.90;;;-0.94;100.00;99646.31;5013173;28;20641;-59
2021/01/26 00:44:40;;;;;;;23.03;15.90;;;-1.60;99.90;;;-1.07;100.00;99653.03;5012961;28;20241;-59
2021/01/26 00:47:08;;;;;;;23.70;15.43;;;-1.70;99.90;;;-0.68;100.00;99655.00;5012287;28;20569;-60
2021/01/26 00:49:35;;;;;;;22.20;14.97;;;-1.70;99.90;;;-0.84;100.00;99651.47;5012949;28;20221;-60
2021/01/26 00:52:03;;;;;;;22.40;15.33;;;-1.60;99.90;;;-0.68;100.00;99655.00;5012198;28;20203;-59
2021/01/26 00:54:30;;;;;;;20.67;13.70;;;-1.60;99.90;;;-0.94;100.00;99646.31;5012639;28;20631;-60
2021/01/26 00:56:57;;;;;;;22.17;14.63;;;-1.60;99.90;;;-1.06;100.00;99649.38;5012710;28;20658;-60
2021/01/26 00:59:24;;;;;;;23.17;15.77;;;-1.70;99.90;;;-1.11;100.00;99651.69;5012414;28;20199;-60
2021/01/26 01:01:52;;;;;;;22.07;16.30;;;-1.80;99.90;;;-0.60;100.00;99652.38;5012499;28;20241;-59
2021/01/26 01:04:20;;;;;;;24.00;15.73;;;-1.70;99.90;;;-0.58;100.00;99657.50;5012779;28;20198;-59
2021/01/26 01:06:47;;;;;;;25.17;17.20;;;-1.60;99.90;;;-0.91;100.00;99656.56;5012100;28;20738;-59
2021/01/26 01:09:14;;;;;;;21.03;15.43;;;-1.60;99.90;;;-0.79;100.00;99657.09;5012445;28;20231;-59
2021/01/26 01:11:41;;;;;;;26.13;17.07;;;-1.60;99.90;;;-0.95;100.00;99664.97;5012575;28;20201;-60
2021/01/26 01:14:09;;;;;;;26.00;17.93;;;-1.70;99.90;;;-1.20;100.00;99668.50;5012306;28;20320;-60
2021/01/26 01:16:36;;;;;;;23.60;16.23;;;-1.70;99.90;;;-0.95;100.00;99671.09;5012428;28;20206;-60
2021/01/26 01:19:03;;;;;;;26.33;17.53;;;-1.80;99.90;;;-1.04;100.00;99673.84;5012447;28;20202;-60
2021/01/26 01:21:31;;;;;;;24.77;17.07;;;-1.80;99.90;;;-1.20;100.00;99664.03;5011947;28;20238;-60
2021/01/26 01:23:58;;;;;;;23.57;15.57;;;-1.80;99.90;;;-1.32;100.00;99670.59;5012466;28;20209;-60
2021/01/26 01:26:26;;;;;;;22.80;15.33;;;-1.90;99.90;;;-0.98;100.00;99663.47;5012043;28;20260;-59
2021/01/26 01:28:53;;;;;;;23.27;15.43;;;-1.90;99.90;;;-1.01;100.00;99665.59;5012252;28;20226;-60
2021/01/26 01:31:20;;;;;;;21.13;14.47;;;-1.80;99.90;;;-0.68;100.00;99660.31;5012016;28;20268;-60
2021/01/26 01:33:47;;;;;;;22.33;15.10;;;-1.80;99.90;;;-0.88;100.00;99666.81;5012174;28;20384;-60
2021/01/26 01:36:14;;;;;;;23.53;15.67;;;-1.70;99.90;;;-0.97;100.00;99661.66;5011597;28;20608;-60
2021/01/26 01:38:43;;;;;;;22.13;14.87;;;-1.70;99.90;;;-1.25;100.00;99666.31;5012284;28;20666;-60
2021/01/26 01:41:10;;;;;;;21.33;14.93;;;-1.80;99.90;;;-1.23;100.00;99661.69;5012258;28;20234;-60
2021/01/26 01:43:37;;;;;;;22.57;15.50;;;-1.80;99.90;;;-0.85;100.00;99663.03;5011926;28;20244;-60
2021/01/26 01:46:16;;;;;;;20.40;15.60;;;-1.80;99.90;;;-0.70;100.00;99662.28;5012334;28;20207;-60
2021/01/26 01:48:43;;;;;;;23.30;16.77;;;-1.70;99.90;;;-0.84;100.00;99656.75;5012196;28;20195;-59
2021/01/26 01:51:16;;;;;;;26.03;16.97;;;-1.70;99.90;;;-1.16;100.00;99664.53;5011468;28;20750;-60
2021/01/26 01:53:50;;;;;;;22.70;15.97;;;-1.80;99.90;;;-0.69;100.00;99660.44;5012174;28;20243;-60
2021/01/26 01:56:25;;;;;;;23.87;15.67;;;-1.80;99.90;;;-0.88;100.00;99658.06;5012205;28;20301;-60
2021/01/26 01:59:00;;;;;;;21.93;14.73;;;-1.80;99.90;;;-0.70;100.00;99656.16;5014719;28;20185;-60
2021/01/26 02:01:30;;;;;;;20.90;14.00;;;-1.60;99.90;;;-1.07;100.00;99661.78;5015732;28;20280;-60
2021/01/26 02:04:02;;;;;;;20.37;13.80;;;-1.70;99.90;;;-0.77;100.00;99655.97;5015736;28;20636;-60
2021/01/26 02:06:33;;;;;;;20.27;13.17;;;-1.70;99.90;;;-0.52;100.00;99660.34;5015394;28;20226;-59
2021/01/26 02:09:08;;;;;;;21.53;13.77;;;-1.50;99.90;;;-0.50;100.00;99646.94;5016027;28;20190;-59
2021/01/26 02:11:36;;;;;;;19.13;12.53;;;-1.50;99.90;;;-0.69;100.00;99653.34;5015745;28;20631;-60
2021/01/26 02:14:04;;;;;;;20.00;13.10;;;-1.50;99.90;;;-0.72;100.00;99652.81;5015767;28;20261;-60
2021/01/26 02:16:48;;;;;;;20.63;13.63;;;-1.50;99.90;;;-0.88;100.00;99655.44;5015537;28;20293;-60
2021/01/26 02:20:31;;;;;;;18.53;13.47;;;-1.50;99.90;;;-0.61;100.00;99656.00;5015430;28;20417;-60
2021/01/26 02:23:55;;;;;;;18.83;12.47;;;-1.50;99.90;;;-0.24;100.00;99648.47;5015578;28;20227;-61
2021/01/26 02:27:20;;;;;;;16.90;12.57;;;-1.30;99.90;;;-0.65;100.00;99649.41;5015397;28;20195;-60
2021/01/26 02:30:31;;;;;;;24.10;14.97;;;-1.40;99.90;;;-0.55;100.00;99652.72;5002758;28;20256;-60
2021/01/26 02:33:45;;;;;;;17.97;12.70;;;-1.40;99.90;;;-0.60;100.00;99647.09;5015416;28;20299;-60
2021/01/26 02:37:08;;;;;;;17.57;12.30;;;-1.50;99.90;;;-0.48;100.00;99653.75;5013489;28;20327;-60
2021/01/26 02:39:49;;;;;;;16.83;12.47;;;-1.50;99.90;;;-0.28;100.00;99647.16;5014179;28;20251;-60
2021/01/26 02:42:37;;;;;;;21.17;12.73;;;-1.30;99.90;;;-0.61;100.00;99655.19;5013835;28;20194;-60
2021/01/26 02:45:20;;;;;;;16.63;12.13;;;-1.40;99.90;;;-0.92;100.00;99660.22;5014266;28;20206;-60
2021/01/26 02:48:01;;;;;;;17.77;12.17;;;-1.50;99.90;;;-0.70;100.00;99651.69;5014165;28;20274;-60
2021/01/26 02:50:38;;;;;;;14.70;11.53;;;-1.50;99.90;;;-0.71;100.00;99657.94;5013384;28;20558;-59
2021/01/26 02:53:14;;;;;;;15.90;11.17;;;-1.50;99.90;;;-0.78;100.00;99650.84;5013917;28;20297;-60
2021/01/26 02:55:52;;;;;;;16.37;10.40;;;-1.60;99.90;;;-0.86;100.00;99650.81;5013653;28;20655;-59
2021/01/26 02:58:31;;;;;;;16.80;11.07;;;-1.60;99.90;;;-0.95;100.00;99655.25;5013836;28;20182;-59
2021/01/26 03:01:01;;;;;;;15.53;11.13;;;-1.70;99.90;;;-1.04;100.00;99653.53;5013782;28;20193;-59
2021/01/26 03:03:37;;;;;;;15.93;10.87;;;-1.70;99.90;;;-0.58;100.00;99655.69;5013786;28;20654;-60
2021/01/26 03:06:09;;;;;;;14.37;10.20;;;-1.70;99.90;;;-0.53;100.00;99647.28;5013590;28;20274;-60
2021/01/26 03:08:46;;;;;;;15.30;11.20;;;-1.60;99.90;;;-0.18;100.00;99650.47;5013429;28;20245;-60
2021/01/26 03:11:23;;;;;;;12.93;10.13;;;-1.40;99.90;;;-0.35;100.00;99658.53;5013859;28;20231;-60
2021/01/26 03:13:57;;;;;;;14.37;9.70;;;-1.30;99.90;;;-0.52;100.00;99660.34;5013276;28;20302;-59
2021/01/26 03:16:30;;;;;;;14.33;10.67;;;-1.30;99.90;;;-0.30;100.00;99657.06;5013616;28;20281;-59
2021/01/26 03:19:07;;;;;;;14.23;10.40;;;-1.30;99.90;;;-0.47;100.00;99667.78;5013326;28;20193;-59
2021/01/26 03:21:37;;;;;;;14.30;9.70;;;-1.30;99.90;;;-0.47;100.00;99671.25;5013235;28;20195;-60
2021/01/26 03:24:12;;;;;;;13.90;9.13;;;-1.30;99.90;;;-0.44;100.00;99670.13;5013519;28;20183;-60
2021/01/26 03:26:41;;;;;;;13.50;10.00;;;-1.30;99.90;;;-0.17;100.00;99659.25;5013540;28;20238;-60
2021/01/26 03:29:10;;;;;;;13.77;10.30;;;-1.20;99.90;;;-0.11;99.50;99663.88;5013140;28;20290;-59
2021/01/26 03:31:45;;;;;;;14.37;10.07;;;-1.20;99.90;;;0.03;96.77;99658.75;5013447;28;20203;-59
2021/01/26 03:34:13;;;;;;;13.63;9.53;;;-1.00;99.90;;;-0.08;97.59;99659.09;4991469;28;610614;-60
2021/01/26 03:36:41;;;;;;;12.43;9.33;;;-1.00;99.90;;;-0.16;99.03;99651.16;5014210;28;20194;-60
2021/01/26 03:39:09;;;;;;;13.17;9.23;;;-1.10;99.90;;;0.02;97.16;99650.16;5014284;28;20614;-61
2021/01/26 03:41:37;;;;;;;12.50;8.57;;;-1.00;99.90;;;0.19;95.42;99657.13;5013975;28;20206;-60
2021/01/26 03:44:10;;;;;;;11.53;9.37;;;-0.80;99.90;;;-0.03;97.48;99655.94;5013988;28;20337;-60
2021/01/26 03:47:05;;;;;;;11.93;8.57;;;-0.90;99.90;;;0.21;95.01;99652.47;5013845;28;20191;-61
2021/01/26 03:49:57;;;;;;;12.43;8.90;;;-0.80;99.90;;;0.18;95.72;99651.00;5013761;28;20214;-60
2021/01/26 03:52:45;;;;;;;10.80;8.10;;;-0.70;99.90;;;0.05;95.14;99647.19;5013880;28;20211;-60
2021/01/26 03:55:27;;;;;;;10.37;7.93;;;-0.70;99.90;;;-0.14;96.05;99646.53;5013817;28;20270;-60
2021/01/26 03:58:23;;;;;;;11.63;8.13;;;-0.80;99.90;;;-0.09;97.18;99648.66;5013782;28;20237;-60
2021/01/26 04:01:02;;;;;;;12.47;8.33;;;-0.90;99.90;;;-0.27;97.34;99654.09;5013865;28;20249;-59
2021/01/26 04:03:50;;;;;;;12.27;9.07;;;-0.90;99.90;;;0.15;94.93;99658.44;5013938;28;20183;-59
2021/01/26 04:06:28;;;;;;;11.50;8.43;;;-0.90;99.90;;;0.06;95.11;99649.66;5013471;28;20532;-59
2021/01/26 04:09:02;;;;;;;12.27;7.73;;;-0.90;99.90;;;0.28;93.89;99656.94;5013645;28;20662;-59
2021/01/26 04:11:35;;;;;;;11.87;8.47;;;-0.80;99.90;;;0.09;94.48;99661.72;5013883;28;20186;-59
2021/01/26 04:14:09;;;;;;;11.40;8.13;;;-0.80;99.90;;;0.03;94.86;99653.44;5013723;28;20214;-60
2021/01/26 04:16:44;;;;;;;12.00;8.13;;;-0.80;99.90;;;0.24;93.69;99654.81;5013553;28;20266;-60
2021/01/26 04:19:18;;;;;;;10.73;8.30;;;-0.70;99.90;;;0.27;94.49;99665.06;5013116;28;20211;-60
2021/01/26 04:21:48;;;;;;;10.03;7.47;;;-0.70;99.90;;;0.19;93.91;99655.28;5012623;28;20277;-60
2021/01/26 04:24:16;;;;;;;9.53;7.10;;;-0.60;99.90;;;0.26;94.66;99655.44;5013449;28;20204;-59
2021/01/26 04:26:46;;;;;;;10.50;7.73;;;-0.60;99.90;;;0.46;92.51;99657.56;5013065;28;20725;-60
2021/01/26 04:29:13;;;;;;;10.37;8.00;;;-0.50;99.90;;;0.44;92.83;99656.09;5013129;28;20200;-60
2021/01/26 04:31:41;;;;;;;9.20;7.60;;;-0.50;99.90;;;0.25;94.10;99653.78;5012912;28;20211;-59
2021/01/26 04:34:08;;;;;;;10.43;7.77;;;-0.50;99.90;;;0.27;93.82;99652.63;5012605;28;20234;-60
2021/01/26 04:36:35;;;;;;;10.90;7.33;;;-0.60;99.90;;;0.24;93.68;99657.44;5013161;28;20222;-60
2021/01/26 04:39:03;;;;;;;12.13;7.90;;;-0.50;99.90;;;0.50;93.16;99647.47;5013122;28;20287;-60
2021/01/26 04:41:40;;;;;;;10.13;7.37;;;-0.50;99.90;;;0.52;91.93;99656.91;5013194;28;20226;-59
2021/01/26 04:44:40;;;;;;;10.07;7.83;;;-0.40;99.90;;;0.43;92.92;99651.78;5012630;28;20639;-59
2021/01/26 04:47:19;;;;;;;10.17;7.43;;;-0.40;99.90;;;0.46;91.82;99652.28;5012797;28;20643;-59
2021/01/26 04:50:01;;;;;;;11.10;7.80;;;-0.40;99.90;;;0.67;91.84;99649.94;5012717;28;20226;-59
2021/01/26 04:52:59;;;;;;;10.43;7.57;;;-0.30;99.90;;;0.59;92.41;99641.97;5012933;28;20462;-60
2021/01/26 04:55:45;;;;;;;9.80;7.13;;;-0.30;99.90;;;0.71;91.89;99645.13;5012582;28;20691;-59
2021/01/26 04:58:35;;;;;;;10.13;7.97;;;-0.20;99.90;;;0.64;92.81;99649.44;5012763;28;20246;-60
2021/01/26 05:01:19;;;;;;;9.77;7.33;;;-0.20;99.90;;;0.43;94.12;99644.66;5012407;28;20273;-59
2021/01/26 05:04:02;;;;;;;10.13;8.23;;;-0.30;99.90;;;0.62;92.92;99646.13;5012484;28;20280;-59
2021/01/26 05:06:42;;;;;;;10.67;7.90;;;-0.30;99.90;;;0.81;92.85;99643.09;5012751;28;20243;-60
2021/01/26 05:09:19;;;;;;;11.57;8.40;;;-0.20;99.90;;;0.81;92.44;99635.16;5012620;28;20199;-59
2021/01/26 05:11:48;;;;;;;11.33;7.97;;;-0.10;99.90;;;0.60;93.55;99634.88;5012672;28;20274;-59
2021/01/26 05:14:23;;;;;;;13.83;8.20;;;-0.20;99.90;;;0.70;94.02;99632.84;5012423;28;20316;-59
2021/01/26 05:17:00;;;;;;;11.20;8.30;;;-0.20;99.90;;;0.73;94.28;99625.38;5012607;28;20229;-59
2021/01/26 05:19:37;;;;;;;10.30;8.27;;;-0.10;99.90;;;0.46;95.60;99630.25;5012296;28;20218;-59
2021/01/26 05:22:14;;;;;;;10.63;8.37;;;-0.20;99.90;;;0.71;94.44;99632.69;5012206;28;20253;-59
2021/01/26 05:24:48;;;;;;;10.03;7.97;;;-0.20;99.90;;;1.06;92.30;99628.75;5012601;28;20210;-59
2021/01/26 05:27:16;;;;;;;10.03;7.60;;;-0.10;99.90;;;0.96;92.74;99626.31;5012256;28;20213;-59
2021/01/26 05:29:43;;;;;;;10.67;8.20;;;0.00;99.90;;;0.86;94.50;99627.50;5012227;28;20293;-59
2021/01/26 05:32:12;;;;;;;9.53;7.83;;;0.00;99.90;;;0.68;95.93;99625.06;5012115;28;20644;-60
2021/01/26 05:34:42;;;;;;;12.57;8.40;;;-0.10;99.90;;;0.49;96.91;99625.44;5011933;28;20648;-60
2021/01/26 05:37:14;;;;;;;10.17;7.57;;;-0.20;99.90;;;0.64;96.86;99622.94;5012216;28;20212;-60
2021/01/26 05:39:50;;;;;;;11.50;7.93;;;-0.20;99.90;;;0.62;97.71;99623.13;5012178;28;20276;-59
2021/01/26 05:42:20;;;;;;;9.73;7.97;;;-0.20;99.90;;;0.43;98.28;99617.34;5011970;28;20647;-59
2021/01/26 05:44:53;;;;;;;10.13;7.77;;;-0.20;99.90;;;0.80;96.16;99615.75;5012096;28;20204;-60
2021/01/26 05:47:28;;;;;;;13.00;8.20;;;-0.20;99.90;;;0.74;97.93;99632.38;5011539;28;20714;-59
2021/01/26 05:49:57;;;;;;;9.87;7.60;;;-0.20;99.90;;;1.11;95.90;99616.66;5011925;28;20183;-60
2021/01/26 05:52:35;;;;;;;11.63;7.70;;;-0.10;99.90;;;1.09;95.71;99617.81;5012071;28;20264;-59
2021/01/26 05:55:15;;;;;;;11.20;7.63;;;0.00;99.90;;;0.93;95.90;99617.88;5011983;28;20688;-59
2021/01/26 05:57:42;;;;;;;10.40;7.70;;;0.00;99.90;;;0.90;97.28;99628.81;5012008;28;20243;-58
2021/01/26 06:00:22;;;;;;;10.00;7.93;;;0.00;99.90;;;0.88;97.26;99615.72;5012179;28;20671;-59
2021/01/26 06:03:07;;;;;;;10.27;8.20;;;0.00;99.90;;;0.83;97.47;99615.41;5011756;28;20243;-59
2021/01/26 06:05:40;;;;;;;11.13;7.67;;;0.00;99.90;;;0.78;98.12;99608.97;5011974;28;20237;-61
2021/01/26 06:08:12;;;;;;;11.73;8.03;;;0.00;99.90;;;0.91;98.04;99611.91;5011927;28;20226;-59
2021/01/26 06:10:44;;;;;;;12.37;8.20;;;0.00;99.90;;;0.85;97.85;99608.13;5011995;28;20289;-60
2021/01/26 06:13:12;;;;;;;10.57;7.43;;;0.00;99.90;;;0.80;98.30;99618.41;5011613;28;20285;-60
2021/01/26 06:15:41;;;;;;;11.90;7.53;;;0.00;99.90;;;0.78;97.97;99615.09;5011622;28;20227;-59
2021/01/26 06:18:13;;;;;;;10.90;8.63;;;0.00;99.90;;;0.70;99.16;99606.34;5011381;28;20294;-60
2021/01/26 06:20:43;;;;;;;9.57;7.37;;;0.00;99.90;;;0.67;99.01;99610.19;5011533;28;20657;-60
2021/01/26 06:23:19;;;;;;;11.57;8.33;;;0.00;99.90;;;0.54;99.64;99607.22;5011915;28;20291;-60
2021/01/26 06:25:57;;;;;;;10.80;7.90;;;-0.10;99.90;;;0.54;100.00;99607.22;5011532;28;20651;-60
2021/01/26 06:29:01;;;;;;;11.90;8.57;;;-0.10;99.90;;;0.61;100.00;99615.34;5011748;28;20195;-60
2021/01/26 06:31:51;;;;;;;10.20;8.07;;;-0.10;99.90;;;0.61;100.00;99610.03;5011726;28;20190;-59
2021/01/26 06:35:00;;;;;;;12.20;8.43;;;-0.10;99.90;;;0.82;100.00;99613.78;5011501;28;20258;-59
2021/01/26 06:38:40;;;;;;;11.27;8.17;;;-0.10;99.90;;;0.81;100.00;99608.66;5011206;28;20203;-60
2021/01/26 06:41:32;;;;;;;10.53;8.07;;;0.00;99.90;;;0.89;100.00;99608.63;4994577;28;20281;-60
2021/01/26 06:44:35;;;;;;;11.03;7.77;;;0.00;99.90;;;0.71;100.00;99618.63;5012908;28;20221;-60
2021/01/26 06:47:32;;;;;;;10.97;8.67;;;0.00;99.90;;;0.57;100.00;99616.66;5014714;28;20222;-60
2021/01/26 06:50:10;;;;;;;11.93;8.53;;;-0.10;99.90;;;0.86;100.00;99623.00;4992617;28;20661;-60
2021/01/26 06:53:09;;;;;;;14.37;9.93;;;0.00;99.90;;;1.18;100.00;99614.13;5015026;28;20232;-60
2021/01/26 06:56:00;;;;;;;12.30;9.20;;;0.10;99.90;;;1.09;100.00;99602.72;5015189;28;20570;-60
2021/01/26 06:58:59;;;;;;;10.90;8.43;;;0.10;99.90;;;1.30;99.59;99614.56;5014877;28;20288;-60
2021/01/26 07:02:41;;;;;;;12.30;9.30;;;0.20;99.90;;;1.10;100.00;99616.78;5014663;28;20257;-59
2021/01/26 07:05:32;;;;;;;12.17;8.93;;;0.20;99.90;;;1.10;100.00;99619.44;4925481;29;20219;-60
2021/01/26 07:08:38;;;;;;;12.60;9.27;;;0.30;99.90;;;1.21;100.00;99616.41;5009445;28;20200;-60
2021/01/26 07:11:30;;;;;;;13.13;9.73;;;0.30;99.90;;;1.13;100.00;99611.16;5014869;28;20252;-60
2021/01/26 07:14:06;;;;;;;12.50;9.47;;;0.30;99.90;;;1.00;100.00;99613.53;5014979;28;20224;-60
2021/01/26 07:16:53;;;;;;;14.90;9.90;;;0.30;99.90;;;1.06;100.00;99604.91;5014648;28;20606;-60
2021/01/26 07:19:53;;;;;;;13.53;10.17;;;0.20;99.90;;;1.04;100.00;99612.19;5014833;28;20213;-60
2021/01/26 07:23:08;;;;;;;11.93;9.17;;;0.30;99.90;;;0.91;100.00;99614.56;5014701;28;20561;-60
2021/01/26 07:26:31;;;;;;;14.73;11.33;;;0.20;99.90;;;0.85;100.00;99615.25;5014952;28;20229;-60
2021/01/26 07:29:37;;;;;;;14.77;10.67;;;0.20;99.90;;;1.04;100.00;99623.63;5014575;28;20285;-60
2021/01/26 07:32:16;;;;;;;14.60;10.60;;;0.20;99.90;;;1.19;100.00;99618.41;5014677;28;20235;-59
2021/01/26 07:35:06;;;;;;;16.23;10.80;;;0.20;99.90;;;1.16;100.00;99621.41;5014341;28;20252;-59
2021/01/26 07:37:44;;;;;;;14.10;11.17;;;0.30;99.90;;;1.20;100.00;99617.44;5014411;28;20270;-59
2021/01/26 07:40:24;;;;;;;16.33;11.10;;;0.30;99.90;;;1.20;100.00;99617.44;5014437;28;20210;-60
2021/01/26 07:43:02;;;;;;;15.60;11.30;;;0.40;99.90;;;1.27;100.00;99615.72;5014410;28;20220;-60
2021/01/26 07:45:37;;;;;;;15.10;11.13;;;0.40;99.90;;;1.26;100.00;99622.03;5014414;28;20185;-60
2021/01/26 07:48:12;;;;;;;15.10;10.67;;;0.40;99.90;;;1.02;100.00;99612.38;5014085;28;20251;-61
2021/01/26 07:50:50;;;;;;;16.00;11.63;;;0.40;99.90;;;1.32;100.00;99610.72;5014191;28;20646;-59
2021/01/26 07:53:30;;;;;;;15.10;11.53;;;0.40;99.90;;;1.50;100.00;99616.59;5014158;28;20217;-61
2021/01/26 07:56:06;;;;;;;16.00;11.93;;;0.50;99.90;;;1.40;100.00;99609.84;5013028;28;20292;-59
2021/01/26 07:58:37;;;;;;;16.43;11.83;;;0.50;99.90;;;1.48;100.00;99607.16;5013673;28;20187;-60
2021/01/26 08:01:05;;;;;;;15.90;12.17;;;0.60;99.90;;;1.70;100.00;99612.47;5013811;28;20257;-60
2021/01/26 08:03:32;;;;;;;15.57;12.70;;;0.70;99.90;;;1.70;100.00;99615.13;5014072;28;20289;-60
2021/01/26 08:06:01;;;;;;;17.30;12.87;;;0.70;99.90;;;1.65;100.00;99612.19;5021479;28;20285;-60
2021/01/26 08:08:33;;;;;;;16.57;12.57;;;0.70;99.90;;;1.68;100.00;99621.59;5016233;28;20199;-59
2021/01/26 08:11:18;;;;;;;18.07;12.60;;;0.80;99.90;;;1.37;100.00;99626.13;5013793;28;20191;-60
2021/01/26 08:13:53;;;;;;;17.80;12.47;;;0.70;99.90;;;1.50;100.00;99624.56;5013775;28;20206;-60
2021/01/26 08:16:30;;;;;;;16.93;12.43;;;0.70;99.90;;;1.71;100.00;99624.75;5014720;28;20222;-61
2021/01/26 08:18:59;;;;;;;16.93;12.70;;;0.80;99.90;;;1.63;100.00;99626.63;5013641;28;20198;-58
2021/01/26 08:21:36;;;;;;;16.97;12.60;;;0.80;99.90;;;2.00;100.00;99621.38;5013595;28;20199;-59
2021/01/26 08:24:30;;;;;;;16.90;12.23;;;0.90;99.90;;;1.97;100.00;99621.72;5013135;28;20527;-62
2021/01/26 08:27:52;;;;;;;17.53;11.87;;;1.00;99.90;;;1.87;100.00;99623.81;5013115;28;20190;-59
2021/01/26 08:31:00;;;;;;;14.77;11.23;;;1.10;99.90;;;1.87;100.00;99631.75;5012931;28;20589;-59
2021/01/26 08:33:34;;;;;;;17.67;11.93;;;1.00;99.90;;;1.96;100.00;99628.88;5031522;28;20194;-59
2021/01/26 08:36:37;;;;;;;18.33;12.10;;;1.10;99.90;;;2.20;100.00;99625.19;5032575;28;20594;-59
2021/01/26 08:39:29;;;;;;;16.37;10.70;;;1.20;99.90;;;2.18;100.00;99632.53;5032904;28;20194;-59
2021/01/26 08:41:57;;;;;;;15.77;11.53;;;1.30;99.90;;;2.24;100.00;99618.50;5032391;28;20672;-60
2021/01/26 08:44:49;;;;;;;15.23;11.90;;;1.30;99.90;;;2.28;100.00;99617.97;5032412;28;20249;-59
2021/01/26 08:47:47;;;;;;;16.50;11.57;;;1.30;99.90;;;2.37;100.00;99611.56;5032380;28;20225;-59
2021/01/26 08:50:28;;;;;;;16.13;12.00;;;1.40;99.90;;;2.43;100.00;99618.00;5032468;28;20553;-60
2021/01/26 08:53:19;;;;;;;15.40;11.47;;;1.40;99.90;;;2.45;100.00;99616.00;5032392;28;20182;-62
2021/01/26 08:55:51;;;;;;;15.97;11.27;;;1.50;99.90;;;2.36;100.00;99631.19;5032186;28;20575;-59
2021/01/26 08:58:39;;;;;;;15.93;11.93;;;1.50;99.90;;;2.54;100.00;99635.34;5032118;28;20221;-59
2021/01/26 09:01:09;;;;;;;14.57;11.00;;;1.60;99.90;;;2.62;100.00;99628.13;5032006;28;20241;-59
2021/01/26 09:03:41;;;;;;;16.60;12.23;;;1.60;99.90;;;2.60;100.00;99639.94;5032316;28;20186;-60
2021/01/26 09:06:13;;;;;;;16.10;11.73;;;1.60;99.90;;;2.69;100.00;99637.00;5031909;28;20288;-60
2021/01/26 09:08:59;;;;;;;16.60;11.30;;;1.60;99.90;;;2.67;99.73;99644.34;5032559;28;20187;-60
2021/01/26 09:11:40;;;;;;;15.40;11.40;;;1.70;99.90;;;2.82;99.93;99650.50;5032972;28;20292;-61
2021/01/26 09:14:35;;;;;;;15.83;11.63;;;1.80;99.90;;;2.76;100.00;99650.41;5033091;28;20266;-60
2021/01/26 09:17:07;;;;;;;14.70;11.27;;;1.80;99.90;;;2.92;100.00;99653.72;5032720;28;20602;-62
2021/01/26 09:19:42;;;;;;;15.17;11.37;;;1.80;99.90;;;3.16;98.10;99660.59;5034445;28;20209;-60
2021/01/26 09:22:14;;;;;;;12.73;10.63;;;2.00;99.90;;;3.05;99.19;99659.22;5031604;28;20408;-60
2021/01/26 09:24:43;;;;;;;15.17;11.77;;;2.00;99.90;;;3.32;98.05;99665.69;5031763;28;20221;-60
2021/01/26 09:27:29;;;;;;;16.67;12.40;;;2.10;99.90;;;3.28;97.57;99675.09;5032275;28;20198;-60
2021/01/26 09:30:22;;;;;;;15.20;12.23;;;2.10;99.90;;;3.33;97.60;99668.16;5031857;28;20184;-61
2021/01/26 09:33:17;;;;;;;14.63;10.93;;;2.20;99.90;;;3.29;96.87;99672.22;5029784;28;20198;-59
2021/01/26 09:35:48;;;;;;;14.83;11.70;;;2.20;99.90;;;3.30;97.13;99683.69;5031437;28;20732;-59
2021/01/26 09:38:21;;;;;;;15.07;11.80;;;2.30;99.90;;;3.43;97.42;99684.69;5031855;28;20738;-60
2021/01/26 09:40:58;;;;;;;14.70;11.00;;;2.20;99.90;;;3.30;96.68;99689.84;5031694;28;20190;-60
2021/01/26 09:43:29;;;;;;;13.00;10.30;;;2.20;99.90;;;3.40;96.23;99693.03;5031489;28;20232;-60
2021/01/26 09:46:02;;;;;;;13.70;11.43;;;2.30;99.90;;;3.56;96.06;99690.19;5030243;28;20187;-59
2021/01/26 09:48:34;;;;;;;13.60;10.67;;;2.30;99.90;;;3.73;93.62;99696.94;5031455;28;20609;-59
2021/01/26 09:51:22;;;;;;;13.33;10.70;;;2.40;99.90;;;3.33;95.36;99705.44;5031498;28;20293;-59
2021/01/26 09:54:01;;;;;;;13.33;10.10;;;2.40;99.90;;;3.43;94.86;99705.97;5031603;28;20231;-59
2021/01/26 09:56:31;;;;;;;12.43;9.83;;;2.30;99.90;;;3.40;96.38;99702.88;5031509;28;20620;-59
2021/01/26 09:58:59;;;;;;;12.80;10.43;;;2.30;99.90;;;3.32;97.32;99710.94;5031014;28;20652;-59
2021/01/26 10:01:31;;;;;;;13.23;10.87;;;2.20;99.90;;;3.50;97.54;99701.56;5030950;28;20226;-59
2021/01/26 10:04:02;;;;;;;14.50;10.03;;;2.30;99.90;;;3.73;94.69;99707.59;5031429;28;20194;-60
2021/01/26 10:06:30;;;;;;;14.37;11.30;;;2.50;99.90;;;3.75;95.14;99702.09;5031055;28;20182;-60
2021/01/26 10:09:17;;;;;;;14.87;12.27;;;2.60;99.90;;;3.70;96.67;99707.16;5031040;28;20289;-60
2021/01/26 10:11:44;;;;;;;16.93;13.03;;;2.60;99.90;;;3.79;96.85;99707.88;5031123;28;20233;-60
2021/01/26 10:14:18;;;;;;;14.30;12.13;;;2.60;99.90;;;3.87;95.57;99711.25;5030846;28;20231;-60
2021/01/26 10:16:48;;;;;;;15.30;12.40;;;2.70;99.90;;;4.11;94.76;99705.53;5031054;28;20196;-60
2021/01/26 10:19:24;;;;;;;15.63;11.63;;;2.80;99.90;;;4.39;93.39;99706.44;5032549;28;20183;-60
2021/01/26 10:21:53;;;;;;;11.07;9.73;;;3.00;99.90;;;4.60;92.09;99702.94;5034770;28;20192;-60
2021/01/26 10:24:29;;;;;;;13.17;9.97;;;3.20;99.90;;;4.81;89.42;99706.41;5035281;28;20202;-60
2021/01/26 10:27:11;;;;;;;11.80;9.67;;;3.40;99.90;;;4.71;88.14;99718.41;5035331;28;20573;-59
2021/01/26 10:29:41;;;;;;;12.10;9.90;;;3.50;99.90;;;5.03;88.16;99714.34;5034445;28;20245;-60
2021/01/26 10:32:12;;;;;;;11.47;9.30;;;3.60;99.90;;;5.01;88.75;99724.41;5034958;28;20237;-60
2021/01/26 10:34:47;;;;;;;13.43;10.00;;;3.60;99.90;;;5.27;86.66;99724.56;5034523;28;20797;-60
2021/01/26 10:37:34;;;;;;;12.37;9.50;;;3.70;99.90;;;5.11;86.71;99728.34;5034839;28;20209;-58
2021/01/26 10:40:31;;;;;;;11.73;9.70;;;3.90;99.90;;;4.95;87.65;99728.66;5034852;28;20242;-60
2021/01/26 10:43:09;;;;;;;11.57;9.20;;;3.70;99.90;;;4.78;88.79;99736.13;5034470;28;20208;-60
2021/01/26 10:45:43;;;;;;;12.30;10.20;;;3.60;99.90;;;4.42;90.01;99742.56;5034832;28;20266;-59
2021/01/26 10:48:24;;;;;;;11.77;9.77;;;3.50;99.90;;;4.43;90.56;99737.03;5035208;28;20626;-59
2021/01/26 10:50:53;;;;;;;14.87;10.67;;;3.40;99.90;;;4.35;91.11;99753.16;5034263;28;20230;-59
2021/01/26 10:53:39;;;;;;;12.13;10.17;;;3.30;99.90;;;4.07;93.19;99760.25;5034547;28;20199;-59
2021/01/26 10:56:07;;;;;;;13.07;10.57;;;3.10;99.90;;;4.14;92.71;99770.97;5034216;28;20253;-61
2021/01/26 10:58:34;;;;;;;13.20;10.30;;;3.10;99.90;;;4.07;93.15;99768.25;5052595;28;20198;-60